Weather at Buochs Airport

Public forecast

Using degrees Celsius for public forecast. Weather courtesy of forecast.io.

Current aviation weather report (METAR) for Buochs Airport

Retrieved 2021/03/04 16:20 UTC (35 minutes ago):

LSZC 041620Z AUTO VRB01KT 9999 SCT085 BKN090 12/00 Q1018

Closest aviation forecast (TAF) to Buochs Airport

Forecast is more than 6 hours old.

Closest forecast is Alpnach Air Base, 5.0 nm (9.2 km) WSW. Retrieved 2021/03/04 10:00 UTC (7 hours ago):

TAF LSMA 040925Z 0410/0516 VRB02KT 9999 BKN080 TEMPO 0416/0420 SHRA PROB40 TEMPO 0417/0420 4000 SHRA FEW060TCU PROB40 TEMPO 0420/0516 SHRA BECMG 0509/0512 04006KT